Terminal Aerodrome Forecast
Issued by NWS Mobile, AL

Home | Current Version | Previous Version | Text Only | Print | Product List | Glossary On
Versions: 1 2 3 4 5 6 7 8 9 10 11 12
000
FTUS44 KMOB 251720
TAFPNS
TAF
KPNS 251720Z 2518/2618 09007KT P6SM VCSH SCT018 BKN060 BKN080
      TEMPO 2520/2524 3SM TSRA OVC025CB
     FM260200 05004KT P6SM SCT030 BKN150=

USA.gov is the U.S. government's official web portal to all federal, state and local government web resources and services.